TimeCDT,TemperatureF,Dew PointF,Humidity,Sea Level PressureIn,VisibilityMPH,Wind Direction,Wind SpeedMPH,Gust SpeedMPH,PrecipitationIn,Events,Conditions,WindDirDegrees,DateUTC
12:53 AM,50.0,23.0,35,29.71,10.0,SSW,12.7,21.9,N/A,,Clear,200,2014-03-14 05:53:00
1:53 AM,51.1,21.9,32,29.68,10.0,South,10.4,-,N/A,,Clear,180,2014-03-14 06:53:00
2:53 AM,48.0,23.0,37,29.68,10.0,SW,6.9,-,N/A,,Clear,230,2014-03-14 07:53:00
3:53 AM,50.0,23.0,35,29.65,10.0,SW,13.8,-,N/A,,Clear,220,2014-03-14 08:53:00
4:53 AM,45.0,24.1,44,29.70,10.0,West,10.4,-,N/A,,Clear,260,2014-03-14 09:53:00
5:53 AM,46.0,24.1,42,29.73,10.0,West,13.8,-,N/A,,Clear,260,2014-03-14 10:53:00
6:53 AM,43.0,25.0,49,29.77,10.0,WNW,13.8,-,N/A,,Clear,290,2014-03-14 11:53:00
7:53 AM,41.0,26.1,55,29.82,10.0,WNW,11.5,-,N/A,,Clear,300,2014-03-14 12:53:00
8:53 AM,44.1,28.0,53,29.86,10.0,NW,9.2,-,N/A,,Clear,310,2014-03-14 13:53:00
9:53 AM,48.9,28.0,44,29.90,10.0,NNW,11.5,-,N/A,,Clear,330,2014-03-14 14:53:00
10:53 AM,52.0,28.9,41,29.93,10.0,NW,13.8,-,N/A,,Clear,310,2014-03-14 15:53:00
11:53 AM,55.9,28.9,36,29.94,10.0,NW,17.3,24.2,N/A,,Clear,320,2014-03-14 16:53:00
12:53 PM,59.0,25.0,27,29.93,10.0,WNW,18.4,-,N/A,,Clear,300,2014-03-14 17:53:00
1:53 PM,60.1,21.9,23,29.94,10.0,NW,18.4,25.3,N/A,,Clear,320,2014-03-14 18:53:00
2:53 PM,60.1,21.0,22,29.93,10.0,NW,19.6,27.6,N/A,,Clear,310,2014-03-14 19:53:00
3:53 PM,61.0,19.9,21,29.93,10.0,NW,11.5,26.5,N/A,,Clear,310,2014-03-14 20:53:00
4:53 PM,61.0,19.9,21,29.93,10.0,WNW,16.1,21.9,N/A,,Clear,300,2014-03-14 21:53:00
5:53 PM,60.1,18.0,20,29.93,10.0,NW,12.7,23.0,N/A,,Clear,320,2014-03-14 22:53:00
6:53 PM,57.0,21.0,25,29.94,10.0,WNW,8.1,-,N/A,,Clear,300,2014-03-14 23:53:00
7:53 PM,52.0,19.9,28,29.96,10.0,NW,3.5,-,N/A,,Clear,310,2014-03-15 00:53:00
8:53 PM,48.9,21.0,33,29.97,10.0,SW,4.6,-,N/A,,Clear,220,2014-03-15 01:53:00
9:53 PM,48.0,21.0,34,29.97,10.0,SSW,6.9,-,N/A,,Clear,210,2014-03-15 02:53:00
10:53 PM,39.0,23.0,53,29.98,10.0,South,4.6,-,N/A,,Clear,170,2014-03-15 03:53:00
11:53 PM,37.0,23.0,57,29.97,10.0,South,5.8,-,N/A,,Clear,170,2014-03-15 04:53:00